Data for 07/16/2008

Time Sea-Level Adjusted Pressure Absolute Pressure Temperature Relative Humidity Dew Point   
(mb) (inHg) (mb) (inHg) (C) (F) (%) (C) (F)
00:05 1019 30.09 849 25.07 17 62.6 47 5.8 42.5
00:10 1019 30.09 849 25.07 16.8 62.3 47 5.6 42
00:15 1019 30.09 849 25.07 17 62.5 47 5.6 42.1
00:20 1019 30.09 849 25.07 16.8 62.3 47 5.6 42.1
00:25 1020 30.12 849 25.07 16.7 62 47 5.3 41.6
00:30 1020 30.12 849 25.07 16.7 62 46 5.2 41.3
00:35 1020 30.12 849 25.07 16.7 62.1 46 5.3 41.5
00:40 1020 30.12 849 25.07 16.7 62 45 4.7 40.5
00:45 1020 30.12 849 25.07 17 62.7 44 4.7 40.5
00:50 1020 30.12 849 25.07 17.2 62.9 44 4.8 40.6
00:55 1020 30.12 849 25.07 17.1 62.7 44 4.9 40.8
01:00 1020 30.12 849 25.07 17 62.5 43 4.4 39.9
01:05 1020 30.12 849 25.07 17.1 62.9 43 4.5 40.1
01:10 1020 30.12 849 25.07 17.1 62.8 43 4.5 40
01:15 1020 30.12 849 25.07 16.9 62.5 43 4.4 40
01:20 1020 30.12 849 25.07 16.9 62.3 42 4 39.3
01:25 1020 30.12 849 25.07 17 62.7 42 4.1 39.3
01:30 1020 30.12 849 25.07 16.9 62.4 43 4.3 39.7
01:35 1020 30.12 849 25.07 16.8 62.2 43 4.2 39.5
01:40 1020 30.12 849 25.07 16.8 62.2 43 4.2 39.6
01:45 1020 30.12 849 25.07 16.8 62.2 42 3.8 38.9
01:50 1020 30.12 850 25.1 17 62.6 41 3.7 38.7
01:55 1020 30.12 850 25.1 17.1 62.8 41 3.9 39.1
02:00 1020 30.12 850 25.1 16.9 62.4 43 4.3 39.7
02:05 1020 30.12 850 25.1 16.6 61.8 42 3.9 39
02:10 1021 30.15 850 25.1 16.6 61.9 43 4 39.1
02:15 1021 30.15 850 25.1 16.5 61.8 43 4 39.2
02:20 1021 30.15 850 25.1 16.5 61.7 42 3.8 38.9
02:25 1021 30.15 850 25.1 16.5 61.7 43 3.9 39.1
02:30 1021 30.15 850 25.1 16.6 61.8 41 3.5 38.3
02:35 1021 30.15 850 25.1 16.6 61.9 42 3.6 38.5
02:40 1021 30.15 850 25.1 16.4 61.5 42 3.5 38.3
02:45 1021 30.15 850 25.1 16.2 61.2 43 3.6 38.5
02:50 1021 30.15 850 25.1 16.3 61.3 45 4.3 39.8
02:55 1021 30.15 850 25.1 16.2 61.2 45 4.4 39.9
03:00 1021 30.15 850 25.1 16.3 61.3 43 3.8 38.9
03:05 1021 30.15 850 25.1 16.4 61.4 43 3.9 39
03:10 1021 30.15 850 25.1 16.4 61.6 43 3.8 38.9
03:15 1021 30.15 850 25.1 16.1 60.9 43 3.7 38.7
03:20 1021 30.15 850 25.1 16 60.8 44 3.9 38.9
03:25 1021 30.15 850 25.1 16.1 61 44 4 39.1
03:30 1021 30.15 850 25.1 15.6 60 48 4.5 40.2
03:35 1021 30.15 850 25.1 14.9 58.9 48 4.1 39.4
03:40 1021 30.15 850 25.1 14.7 58.4 50 4.6 40.3
03:45 1021 30.15 850 25.1 14.5 58.2 50 4.4 39.8
03:50 1021 30.15 850 25.1 14.8 58.6 50 4.6 40.2
03:55 1021 30.15 850 25.1 14.5 58 51 4.5 40.2
04:00 1021 30.15 850 25.1 14.3 57.8 49 4 39.1
04:05 1021 30.15 850 25.1 14.7 58.5 50 4.5 40
04:10 1021 30.15 850 25.1 14.4 57.9 51 4.5 40
04:15 1021 30.15 850 25.1 14.4 57.9 50 4.2 39.6
04:20 1021 30.15 850 25.1 14.6 58.3 51 4.6 40.3
04:25 1021 30.15 850 25.1 14.5 58.1 52 4.7 40.4
04:30 1021 30.15 850 25.1 14.2 57.5 53 4.7 40.4
04:35 1021 30.15 850 25.1 14 57.2 53 4.6 40.3
04:40 1021 30.15 850 25.1 13.5 56.3 55 4.8 40.7
04:45 1021 30.15 850 25.1 13.6 56.5 53 4.2 39.6
04:50 1021 30.15 851 25.13 14.2 57.5 52 4.4 39.9
04:55 1021 30.15 851 25.13 13.9 57 54 4.8 40.6
05:00 1021 30.15 851 25.13 13.6 56.5 53 4.3 39.8
05:05 1021 30.15 851 25.13 13.7 56.7 54 4.6 40.2
05:10 1021 30.15 851 25.13 13.5 56.4 55 4.6 40.3
05:15 1021 30.15 851 25.13 13.3 56 55 4.6 40.2
05:20 1021 30.15 851 25.13 13.7 56.6 53 4.2 39.6
05:25 1021 30.15 851 25.13 13.7 56.6 54 4.5 40.1
05:30 1021 30.15 851 25.13 13.3 56 56 4.7 40.5
05:35 1021 30.15 851 25.13 13 55.4 57 4.8 40.6
05:40 1022 30.18 851 25.13 12.8 55 58 4.8 40.6
05:45 1022 30.18 851 25.13 12.6 54.7 58 4.6 40.2
05:50 1022 30.18 851 25.13 12.6 54.6 59 4.8 40.7
05:55 1022 30.18 851 25.13 12.2 53.9 60 4.7 40.5
06:00 1021 30.15 851 25.13 12.1 53.8 60 4.6 40.3
06:05 1021 30.15 851 25.13 12 53.7 60 4.5 40
06:10 1021 30.15 851 25.13 12.2 54 59 4.5 40.1
06:15 1021 30.15 851 25.13 12.4 54.3 58 4.4 39.9
06:20 1021 30.15 851 25.13 12.6 54.6 58 4.5 40.2
06:25 1022 30.18 851 25.13 12.8 55 57 4.5 40
06:30 1022 30.18 851 25.13 13 55.3 58 4.9 40.8
06:35 1022 30.18 851 25.13 12.9 55.2 57 4.7 40.4
06:40 1022 30.18 851 25.13 13.2 55.7 56 4.6 40.3
06:45 1022 30.18 851 25.13 13.3 56 56 4.8 40.7
06:50 1022 30.18 851 25.13 13.5 56.3 55 4.8 40.6
06:55 1022 30.18 851 25.13 13.7 56.7 55 4.9 40.8
07:00 1022 30.18 851 25.13 13.5 56.4 57 5.4 41.6
07:05 1022 30.18 851 25.13 13.6 56.5 56 4.9 40.9
07:10 1022 30.18 851 25.13 13.7 56.6 56 5.1 41.2
07:15 1022 30.18 851 25.13 14.1 57.3 53 4.6 40.2
07:20 1022 30.18 851 25.13 14.3 57.7 53 4.9 40.8
07:25 1022 30.18 851 25.13 14.4 57.9 54 5.3 41.5
07:30 1022 30.18 851 25.13 14.4 57.8 55 5.4 41.8
07:35 1022 30.18 851 25.13 14.7 58.4 53 5.4 41.6
07:40 1022 30.18 851 25.13 15.3 59.5 52 5.4 41.8
07:45 1022 30.18 851 25.13 15.6 60.1 52 5.8 42.5
07:50 1022 30.18 851 25.13 15.8 60.5 52 6 42.7
07:55 1022 30.18 851 25.13 15.8 60.4 54 6.7 44
08:00 1022 30.18 851 25.13 15.9 60.7 56 7.1 44.9
08:05 1022 30.18 851 25.13 16.1 60.9 55 7 44.7
08:10 1022 30.18 851 25.13 16.3 61.3 52 6.5 43.7
08:15 1022 30.18 851 25.13 16.2 61.1 53 6.6 43.9
08:20 1022 30.18 852 25.16 16.5 61.6 50 6.2 43.2
08:25 1022 30.18 852 25.16 17.7 63.8 47 6.4 43.5
08:30 1022 30.18 852 25.16 18.4 65 46 6.6 44
08:35 1022 30.18 852 25.16 18.8 65.9 43 6.1 43.1
08:40 1023 30.21 852 25.16 19.3 66.8 42 6.3 43.3
08:45 1023 30.21 852 25.16 19.9 67.8 42 6.6 43.8
08:50 1023 30.21 852 25.16 19.4 66.9 43 6.6 44
08:55 1023 30.21 852 25.16 18.9 66.1 46 7.1 44.7
09:00 1023 30.21 852 25.16 18.4 65.1 46 6.8 44.2
09:05 1023 30.21 852 25.16 18.7 65.6 42 5.8 42.4
09:10 1023 30.21 852 25.16 19.1 66.3 42 6 42.9
09:15 1023 30.21 852 25.16 19.6 67.2 40 5.7 42.2
09:20 1023 30.21 852 25.16 19.8 67.7 39 5.5 41.9
09:25 1023 30.21 852 25.16 20.3 68.5 37 5.1 41.2
09:30 1023 30.21 852 25.16 20.1 68.2 38 5.6 42
09:35 1023 30.21 852 25.16 19.6 67.3 39 5.4 41.6
09:40 1023 30.21 852 25.16 19.4 66.8 39 5.2 41.3
09:45 1023 30.21 852 25.16 18.8 65.9 40 5.2 41.3
09:50 1023 30.21 852 25.16 19.1 66.4 41 5.8 42.5
09:55 1023 30.21 852 25.16 19.4 66.8 40 5.7 42.3
10:00 1023 30.21 852 25.16 19.5 67 41 5.9 42.6
10:05 1023 30.21 852 25.16 19.4 66.8 39 5.2 41.3
10:10 1023 30.21 852 25.16 20.6 69 37 5.6 42.1
10:15 1023 30.21 852 25.16 20.7 69.3 38 5.9 42.7
10:20 1023 30.21 852 25.16 21.3 70.4 35 5.6 42
10:25 1023 30.21 852 25.16 21.8 71.3 34 5.6 42.1
10:30 1023 30.21 852 25.16 21.6 70.9 36 6.2 43.2
10:35 1023 30.21 852 25.16 20.8 69.4 37 5.7 42.3
10:40 1023 30.21 852 25.16 20.3 68.6 37 5.3 41.5
10:45 1023 30.21 852 25.16 20.6 69.1 37 5.6 42.1
10:50 1023 30.21 852 25.16 20.5 68.9 36 5 40.9
10:55 1023 30.21 852 25.16 21.7 71 32 4.5 40.1
11:00 1022 30.18 852 25.16 22.7 72.9 32 5.4 41.8
11:05 1022 30.18 852 25.16 22.5 72.5 31 4.8 40.7
11:10 1022 30.18 852 25.16 22.8 73 30 4.6 40.3
11:15 1022 30.18 852 25.16 22.8 73.1 31 4.8 40.7
11:20 1022 30.18 852 25.16 22.8 73 32 5.5 41.9
11:25 1022 30.18 852 25.16 23.6 74.5 28 4.3 39.7
11:30 1022 30.18 852 25.16 24.2 75.6 26 3.8 38.9
11:35 1022 30.18 851 25.13 24.7 76.5 25 3.4 38.1
11:40 1022 30.18 851 25.13 25 77 23 2.6 36.6
11:45 1022 30.18 851 25.13 24.8 76.7 25 3.6 38.5
11:50 1022 30.18 851 25.13 24.8 76.7 24 2.9 37.2
11:55 1022 30.18 851 25.13 25.6 78.2 23 3.4 38.1
12:00 1022 30.18 851 25.13 25 76.9 23 2.4 36.3
12:05 1022 30.18 851 25.13 24.3 75.8 24 2.5 36.4
12:10 1022 30.18 851 25.13 23.9 74.9 23 1.6 34.8
12:15 1022 30.18 851 25.13 24.1 75.5 23 1.8 35.3
12:20 1022 30.18 851 25.13 24.7 76.4 23 2.3 36.2
12:25 1022 30.18 851 25.13 24.3 75.8 22 1.5 34.7
12:30 1022 30.18 851 25.13 24.3 75.7 22 1.7 35.1
12:35 1022 30.18 851 25.13 25.7 78.2 21 2.2 35.9
12:40 1022 30.18 851 25.13 26.2 79.1 21 2.7 36.9
12:45 1022 30.18 851 25.13 25.9 78.7 23 3.2 37.8
12:50 1022 30.18 851 25.13 25 77 25 3.8 38.9
12:55 1022 30.18 851 25.13 24.5 76 24 3 37.5
13:00 1022 30.18 851 25.13 24.4 76 23 2.4 36.3
13:05 1022 30.18 851 25.13 25.1 77.3 23 2.6 36.6
13:10 1022 30.18 851 25.13 24.3 75.7 24 2.8 37
13:15 1022 30.18 851 25.13 23.8 74.8 25 2.9 37.2
13:20 1022 30.18 851 25.13 23.6 74.5 24 2.2 36
13:25 1022 30.18 851 25.13 23.7 74.6 25 3 37.4
13:30 1022 30.18 851 25.13 23.6 74.5 26 2.9 37.3
13:35 1023 30.21 852 25.16 23.4 74.1 26 3.1 37.5
13:40 1023 30.21 852 25.16 22.3 72.2 49 11.2 52.1
13:45 1023 30.21 853 25.19 18 64.3 57 9.3 48.7
13:50 1023 30.21 852 25.16 17.7 63.9 59 9.6 49.3
13:55 1022 30.18 852 25.16 17.1 62.8 65 10.6 51.2
14:00 1022 30.18 851 25.13 16.7 62.1 67 10.7 51.2
14:05 1022 30.18 851 25.13 16.9 62.5 65 10.4 50.7
14:10 1022 30.18 851 25.13 17.7 63.9 61 10.1 50.2
14:15 1022 30.18 851 25.13 18.4 65.1 61 10.9 51.6
14:20 1022 30.18 851 25.13 18.5 65.4 58 10.2 50.4
14:25 1022 30.18 851 25.13 18.6 65.5 55 9.5 49.2
14:30 1022 30.18 851 25.13 18.5 65.4 55 9.5 49.1
14:35 1022 30.18 851 25.13 18.6 65.5 53 8.9 48
14:40 1021 30.15 851 25.13 19.4 66.8 46 7.6 45.7
14:45 1021 30.15 851 25.13 20.1 68.2 42 7.1 44.7
14:50 1021 30.15 850 25.1 21.4 70.4 37 6.3 43.3
14:55 1021 30.15 850 25.1 21.3 70.3 41 7.8 46.1
15:00 1021 30.15 850 25.1 21.6 70.8 39 7.4 45.3
15:05 1021 30.15 850 25.1 21.9 71.3 39 7.4 45.3
15:10 1021 30.15 850 25.1 21.9 71.4 38 7.1 44.9
15:15 1021 30.15 850 25.1 22.5 72.4 39 8 46.4
15:20 1021 30.15 850 25.1 22.9 73.3 38 8 46.4
15:25 1020 30.12 850 25.1 23.5 74.2 34 6.9 44.4
15:30 1020 30.12 850 25.1 23.6 74.5 35 7.5 45.5
15:35 1020 30.12 849 25.07 23.7 74.6 35 7.6 45.7
15:40 1020 30.12 849 25.07 24.4 75.9 32 6.9 44.4
15:45 1020 30.12 849 25.07 24.3 75.8 31 6.2 43.2
15:50 1020 30.12 849 25.07 24.7 76.4 30 6.4 43.5
15:55 1020 30.12 849 25.07 24.8 76.7 28 5.4 41.7
16:00 1020 30.12 849 25.07 24.5 76.1 28 4.9 40.8
16:05 1020 30.12 849 25.07 24.9 76.8 26 4.5 40.1
16:10 1020 30.12 849 25.07 24.6 76.2 26 4.2 39.6
16:15 1020 30.12 849 25.07 24.6 76.3 28 5.1 41.2
16:20 1020 30.12 849 25.07 24.6 76.3 28 5.1 41.2
16:25 1020 30.12 849 25.07 24.6 76.2 29 5.4 41.8
16:30 1020 30.12 849 25.07 24.5 76.1 25 3.4 38.1
16:35 1020 30.12 849 25.07 24.2 75.6 26 3.5 38.4
16:40 1020 30.12 849 25.07 24.5 76.2 23 2.3 36.2
16:45 1020 30.12 849 25.07 24.8 76.7 25 3.5 38.4
16:50 1020 30.12 849 25.07 24.9 76.8 25 3.7 38.6
16:55 1020 30.12 849 25.07 24.3 75.8 27 4.4 39.9
17:00 1020 30.12 849 25.07 24.2 75.5 26 3.9 39.1
17:05 1020 30.12 850 25.1 24.1 75.3 27 4.1 39.5
17:10 1021 30.15 850 25.1 23.7 74.6 34 7.1 44.7
17:15 1021 30.15 850 25.1 21.9 71.4 40 7.8 46.1
17:20 1021 30.15 851 25.13 21.3 70.4 42 8.1 46.7
17:25 1022 30.18 851 25.13 21 69.8 45 8.6 47.5
17:30 1022 30.18 852 25.16 20.5 69 49 9.5 49.1
17:35 1023 30.21 852 25.16 19.9 67.8 51 9.6 49.3
17:40 1023 30.21 852 25.16 19.4 66.9 52 9.3 48.8
17:45 1023 30.21 852 25.16 19.1 66.4 55 9.9 49.8
17:50 1022 30.18 851 25.13 18 64.4 72 13 55.3
17:55 1022 30.18 852 25.16 17.2 62.9 69 11.6 52.9
18:00 1022 30.18 852 25.16 16.5 61.7 77 12.5 54.5
18:05 1022 30.18 852 25.16 16.2 61.1 77 12.3 54.1
18:10 1023 30.21 852 25.16 15.9 60.7 80 12.6 54.7
18:15 1023 30.21 852 25.16 15.7 60.3 80 12.3 54.1
18:20 1023 30.21 852 25.16 15.5 59.9 85 13 55.4
18:25 1022 30.18 851 25.13 15 58.9 89 13.1 55.6
18:30 1022 30.18 851 25.13 14.8 58.6 86 12.4 54.4
18:35 1022 30.18 851 25.13 14.9 58.8 81 11.7 53
18:40 1021 30.15 850 25.1 15.1 59.2 84 12.5 54.4
18:45 1021 30.15 850 25.1 15 59.1 84 12.3 54.2
18:50 1021 30.15 850 25.1 15 59 82 12 53.6
18:55 1021 30.15 850 25.1 14.9 58.9 82 11.9 53.4
19:00 1021 30.15 850 25.1 15 59 83 12.1 53.8
19:05 1021 30.15 850 25.1 15.2 59.3 84 12.4 54.4
19:10 1021 30.15 850 25.1 15.1 59.3 82 12 53.7
19:15 1021 30.15 850 25.1 15.3 59.5 81 12 53.5
19:20 1021 30.15 851 25.13 15.5 59.8 78 11.7 53.1
19:25 1022 30.18 851 25.13 15.6 60 76 11.4 52.4
19:30 1023 30.21 852 25.16 15.6 60.1 78 11.9 53.3
19:35 1022 30.18 851 25.13 15.5 59.9 82 12.5 54.4
19:40 1022 30.18 851 25.13 15 59.1 86 12.6 54.8
19:45 1022 30.18 851 25.13 14.9 58.8 83 12 53.7
19:50 1022 30.18 851 25.13 14.8 58.7 86 12.5 54.4
19:55 1022 30.18 851 25.13 14.7 58.5 83 11.9 53.4
20:00 1022 30.18 851 25.13 14.7 58.5 86 12.4 54.3
20:05 1022 30.18 851 25.13 14.7 58.5 84 12.1 53.8
20:10 1022 30.18 851 25.13 14.7 58.5 82 11.7 53.1
20:15 1022 30.18 851 25.13 14.7 58.5 83 11.9 53.5
20:20 1022 30.18 851 25.13 14.7 58.4 86 12.4 54.3
20:25 1022 30.18 851 25.13 14.5 58 85 12 53.6
20:30 1021 30.15 851 25.13 14.4 58 85 11.9 53.4
20:35 1021 30.15 851 25.13 14.4 58 83 11.7 53
20:40 1021 30.15 851 25.13 14.4 58 81 11.3 52.3
20:45 1021 30.15 850 25.1 14.6 58.2 80 11.3 52.3
20:50 1021 30.15 850 25.1 14.6 58.4 79 11.2 52.1
20:55 1021 30.15 850 25.1 14.7 58.4 79 11.1 52
21:00 1021 30.15 850 25.1 14.6 58.3 78 10.9 51.6
21:05 1021 30.15 850 25.1 14.5 58.2 80 11.2 52.1
21:10 1021 30.15 850 25.1 14.4 57.8 79 10.8 51.5
21:15 1021 30.15 850 25.1 14.5 58.1 77 10.6 51
21:20 1021 30.15 850 25.1 14.5 58.2 77 10.5 50.9
21:25 1021 30.15 850 25.1 14.6 58.2 78 10.7 51.3
21:30 1021 30.15 850 25.1 14.5 58 77 10.6 51.1
21:35 1021 30.15 850 25.1 14.5 58 79 10.8 51.4
21:40 1021 30.15 850 25.1 14.4 58 78 10.6 51.1
21:45 1021 30.15 850 25.1 14.5 58 77 10.6 51.1
21:50 1021 30.15 850 25.1 14.4 57.9 78 10.6 51.1
21:55 1021 30.15 851 25.13 14.4 57.9 77 10.5 50.9
22:00 1021 30.15 851 25.13 14.3 57.8 79 10.7 51.3
22:05 1022 30.18 851 25.13 14.2 57.5 80 10.8 51.4
22:10 1022 30.18 851 25.13 14 57.2 81 10.7 51.3
22:15 1022 30.18 851 25.13 13.9 57.1 81 10.7 51.3
22:20 1022 30.18 851 25.13 13.9 57.1 81 10.7 51.3
22:25 1022 30.18 851 25.13 13.9 56.9 81 10.6 51.1
22:30 1022 30.18 851 25.13 14 57.1 79 10.5 50.8
22:35 1022 30.18 851 25.13 14.1 57.4 78 10.3 50.6
22:40 1022 30.18 851 25.13 14.2 57.5 77 10.3 50.6
22:45 1022 30.18 851 25.13 14.2 57.5 77 10.2 50.4
22:50 1022 30.18 851 25.13 14.2 57.5 77 10.2 50.3
22:55 1022 30.18 851 25.13 14.1 57.3 78 10.3 50.6
23:00 1022 30.18 851 25.13 14 57.1 77 10.1 50.2
23:05 1022 30.18 851 25.13 14 57.2 78 10.3 50.5
23:10 1022 30.18 851 25.13 13.9 57 78 10.2 50.3
23:15 1022 30.18 851 25.13 13.8 56.8 78 10.1 50.2
23:20 1022 30.18 851 25.13 13.8 56.8 78 10 50
23:25 1022 30.18 851 25.13 13.9 56.9 78 10.1 50.3
23:30 1022 30.18 851 25.13 13.8 56.8 78 10.1 50.2
23:35 1022 30.18 851 25.13 13.7 56.6 79 10.1 50.1
23:40 1022 30.18 851 25.13 13.5 56.3 79 10 49.9
23:45 1022 30.18 851 25.13 13.3 56 80 10 49.9
23:50 1022 30.18 851 25.13 13.2 55.7 80 9.8 49.7
23:55 1022 30.18 851 25.13 13.2 55.8 80 9.8 49.7
24:00 1022 30.18 851 25.13 13.2 55.7 81 10 49.9